Yuma, Colorado
Current Conditions -  °F | °C
As of 10:53 AM on Friday 21 Nov 2014 (Local Time) from KAKO Reporting Station
Clear Clear  
Wind Chill: 44°   Ceiling: Unl
Heat Index: 48°   Visibility: 10mi
Dew Point: 24°   Wind: 8mph
Humidity: 39%   Direction: 310°NW
Pressure: 29.94"   Gusts: NA
Location:  40.12°N, 102.73°W
Report Text: KAKO 211753Z AUTO 31007KT 10SM CLR 09/M04 A2994 RMK AO2 SLP133 T00891044 10089 21033 58003
Loading
Personal Weather Stations






























Interactive Weather Map New forecast layout! Learn more

10-Day Weather Forecast

Advertisements
Track Severe Weather on mobile